createdAt,value
2023-05-21T00:02:26.334Z,5.03
2023-05-21T00:04:53.690Z,4.20
2023-05-21T00:07:27.510Z,4.20
2023-05-21T00:09:54.887Z,4.80
2023-05-21T00:12:22.013Z,4.75
2023-05-21T00:14:55.377Z,5.03
2023-05-21T00:17:23.365Z,4.82
2023-05-21T00:19:51.915Z,4.40
2023-05-21T00:22:26.387Z,4.70
2023-05-21T00:24:53.713Z,4.88
2023-05-21T00:27:27.568Z,5.03
2023-05-21T00:29:54.805Z,5.00
2023-05-21T00:32:22.051Z,4.97
2023-05-21T00:34:56.316Z,4.43
2023-05-21T00:37:24.641Z,4.35
2023-05-21T00:39:58.592Z,4.03
2023-05-21T00:42:32.550Z,4.15
2023-05-21T00:45:06.332Z,4.28
2023-05-21T00:47:33.785Z,4.18
2023-05-21T00:50:00.978Z,4.32
2023-05-21T00:52:34.410Z,4.95
2023-05-21T00:55:01.539Z,4.80
2023-05-21T00:57:35.460Z,5.35
2023-05-21T01:00:02.701Z,4.85
2023-05-21T01:02:34.803Z,4.82
2023-05-21T01:05:08.334Z,4.55
2023-05-21T01:07:36.718Z,4.78
2023-05-21T01:10:11.428Z,4.72
2023-05-21T01:12:39.663Z,4.60
2023-05-21T01:15:07.260Z,4.65
2023-05-21T01:20:12.133Z,4.20
2023-05-21T01:22:50.340Z,4.75
2023-05-21T01:27:51.343Z,5.38
2023-05-21T01:30:19.817Z,4.25
2023-05-21T01:33:00.459Z,4.50
2023-05-21T01:35:36.551Z,4.82
2023-05-21T01:38:24.341Z,5.60
2023-05-21T01:41:01.286Z,4.40
2023-05-21T01:43:35.680Z,5.60
2023-05-21T01:46:16.351Z,5.25
2023-05-21T01:48:44.511Z,5.72
2023-05-21T01:51:12.153Z,5.45
2023-05-21T01:56:16.153Z,5.95
2023-05-21T01:58:50.488Z,6.65
2023-05-21T02:01:17.652Z,6.93
2023-05-21T02:03:44.882Z,6.30
2023-05-21T02:06:18.937Z,5.55
2023-05-21T02:08:46.306Z,5.85
2023-05-21T02:11:20.384Z,6.20
2023-05-21T02:13:47.633Z,5.82
2023-05-21T02:16:15.886Z,6.05
2023-05-21T02:18:53.645Z,6.18
2023-05-21T02:21:20.964Z,6.57
2023-05-21T02:23:48.094Z,6.40
2023-05-21T02:26:21.360Z,5.72
2023-05-21T02:28:48.616Z,5.28
2023-05-21T02:31:22.376Z,5.68
2023-05-21T02:33:49.668Z,6.40
2023-05-21T02:36:25.574Z,5.65
2023-05-21T02:38:52.767Z,5.95
2023-05-21T02:41:39.408Z,5.68
2023-05-21T02:44:06.667Z,6.25
2023-05-21T02:46:33.906Z,5.63
2023-05-21T02:49:07.444Z,6.00
2023-05-21T02:51:34.642Z,6.15
2023-05-21T02:54:08.396Z,5.45
2023-05-21T02:56:35.649Z,6.03
2023-05-21T02:59:09.472Z,6.00
2023-05-21T03:01:36.846Z,6.55
2023-05-21T03:04:04.112Z,5.88
2023-05-21T03:06:38.352Z,4.70
2023-05-21T03:09:05.994Z,4.47
2023-05-21T03:14:07.456Z,4.97
2023-05-21T03:16:34.984Z,5.35
2023-05-21T03:19:09.433Z,5.60
2023-05-21T03:21:36.739Z,5.35
2023-05-21T03:24:12.514Z,5.90
2023-05-21T03:26:39.702Z,5.30
2023-05-21T03:29:06.839Z,5.95
2023-05-21T03:31:40.381Z,5.47
2023-05-21T03:34:08.605Z,5.10
2023-05-21T03:36:42.464Z,5.28
2023-05-21T03:39:09.692Z,5.78
2023-05-21T03:41:50.449Z,5.85
2023-05-21T03:44:24.379Z,5.68
2023-05-21T03:46:58.702Z,5.78
2023-05-21T03:49:26.804Z,5.18
2023-05-21T03:51:54.220Z,4.63
2023-05-21T03:54:28.473Z,4.63
2023-05-21T03:56:55.710Z,4.80
2023-05-21T03:59:29.564Z,5.03
2023-05-21T04:01:56.840Z,5.00
2023-05-21T04:04:24.001Z,5.00
2023-05-21T04:06:58.538Z,4.97
2023-05-21T04:09:25.797Z,5.45
2023-05-21T04:11:52.922Z,5.60
2023-05-21T04:14:26.400Z,5.38
2023-05-21T04:17:00.334Z,4.85
2023-05-21T04:19:27.619Z,4.80
2023-05-21T04:22:01.337Z,4.78
2023-05-21T04:24:28.512Z,5.10
2023-05-21T04:26:56.149Z,4.85
2023-05-21T04:31:56.729Z,5.13
2023-05-21T04:34:30.700Z,5.03
2023-05-21T04:36:58.533Z,5.13
2023-05-21T04:39:25.729Z,5.20
2023-05-21T04:42:01.506Z,4.90
2023-05-21T04:44:35.219Z,4.85
2023-05-21T04:47:09.476Z,4.82
2023-05-21T04:49:36.649Z,4.90
2023-05-21T04:52:10.594Z,5.20
2023-05-21T04:54:39.021Z,5.20
2023-05-21T04:57:07.086Z,4.90
2023-05-21T04:59:40.453Z,5.07
2023-05-21T05:02:07.730Z,4.50
2023-05-21T05:04:41.471Z,4.15
2023-05-21T05:07:08.842Z,4.38
2023-05-21T05:09:36.116Z,4.45
2023-05-21T05:12:09.413Z,4.40
2023-05-21T05:14:36.614Z,4.40
2023-05-21T05:17:10.624Z,3.63
2023-05-21T05:19:37.967Z,3.50
2023-05-21T05:22:13.392Z,3.30
2023-05-21T05:24:40.859Z,3.55
2023-05-21T05:27:08.014Z,3.30
2023-05-21T05:29:41.524Z,3.20
2023-05-21T05:32:08.915Z,2.80
2023-05-21T05:34:36.098Z,3.22
2023-05-21T05:37:10.425Z,3.17
2023-05-21T05:39:37.681Z,2.85
2023-05-21T05:42:11.735Z,2.92
2023-05-21T05:44:45.573Z,2.60
2023-05-21T05:47:19.589Z,2.65
2023-05-21T05:49:46.893Z,2.45
2023-05-21T05:52:14.251Z,2.90
2023-05-21T05:54:48.544Z,2.55
2023-05-21T05:57:16.006Z,2.40
2023-05-21T05:59:43.152Z,2.70
2023-05-21T06:02:17.716Z,2.38
2023-05-21T06:04:51.357Z,2.85
2023-05-21T06:07:18.623Z,2.67
2023-05-21T06:09:52.420Z,2.60
2023-05-21T06:12:19.759Z,2.83
2023-05-21T06:14:55.519Z,2.53
2023-05-21T06:17:23.028Z,2.85
2023-05-21T06:19:50.496Z,2.58
2023-05-21T06:22:25.643Z,2.28
2023-05-21T06:24:53.070Z,2.65
2023-05-21T06:27:27.438Z,2.55
2023-05-21T06:29:54.708Z,2.63
2023-05-21T06:32:29.566Z,2.90
2023-05-21T06:34:56.851Z,2.55
2023-05-21T06:37:25.874Z,2.50
2023-05-21T06:40:00.671Z,2.30
2023-05-21T06:42:34.293Z,2.40
2023-05-21T06:45:08.740Z,2.30
2023-05-21T06:47:36.182Z,2.05
2023-05-21T06:50:03.387Z,2.10
2023-05-21T06:52:38.629Z,2.63
2023-05-21T06:55:06.403Z,2.50
2023-05-21T06:57:33.531Z,2.35
2023-05-21T07:00:07.521Z,2.53
2023-05-21T07:02:41.413Z,2.28
2023-05-21T07:05:08.980Z,2.60
2023-05-21T07:07:43.373Z,2.35
2023-05-21T07:10:10.706Z,2.30
2023-05-21T07:12:44.370Z,2.67
2023-05-21T07:15:11.776Z,2.38
2023-05-21T07:17:45.429Z,2.55
2023-05-21T07:20:13.416Z,2.40
2023-05-21T07:22:40.811Z,2.00
2023-05-21T07:25:14.500Z,2.92
2023-05-21T07:27:42.184Z,2.30
2023-05-21T07:30:16.461Z,2.55
2023-05-21T07:32:43.686Z,2.58
2023-05-21T07:35:17.520Z,2.30
2023-05-21T07:37:44.723Z,2.90
2023-05-21T07:40:18.495Z,2.40
2023-05-21T07:42:52.751Z,2.67
2023-05-21T07:45:26.531Z,2.40
2023-05-21T07:47:54.116Z,2.47
2023-05-21T07:50:27.611Z,2.53
2023-05-21T07:52:54.891Z,2.53
2023-05-21T07:55:22.091Z,2.90
2023-05-21T07:57:56.473Z,2.42
2023-05-21T08:00:31.545Z,2.50
2023-05-21T08:02:58.853Z,2.33
2023-05-21T08:05:26.181Z,2.60
2023-05-21T08:07:59.493Z,2.10
2023-05-21T08:10:26.659Z,2.42
2023-05-21T08:13:00.543Z,2.65
2023-05-21T08:15:27.752Z,2.90
2023-05-21T08:18:01.627Z,2.50
2023-05-21T08:20:30.915Z,2.25
2023-05-21T08:22:58.108Z,2.97
2023-05-21T08:25:31.493Z,2.60
2023-05-21T08:27:58.664Z,2.22
2023-05-21T08:30:32.476Z,2.55
2023-05-21T08:32:59.656Z,2.30
2023-05-21T08:35:33.543Z,2.35
2023-05-21T08:38:00.727Z,2.45
2023-05-21T08:40:27.950Z,2.20
2023-05-21T08:43:01.622Z,1.77
2023-05-21T08:45:38.293Z,2.17
2023-05-21T08:48:13.550Z,2.37
2023-05-21T08:50:41.346Z,2.30
2023-05-21T08:53:15.858Z,1.80
2023-05-21T08:56:02.491Z,2.20
2023-05-21T08:58:37.574Z,2.20
2023-05-21T09:01:05.636Z,2.17
2023-05-21T09:03:33.087Z,2.10
2023-05-21T09:08:36.458Z,2.30
2023-05-21T09:11:10.529Z,2.40
2023-05-21T09:13:39.196Z,2.38
2023-05-21T09:16:13.716Z,2.33
2023-05-21T09:18:41.037Z,2.10
2023-05-21T09:21:30.592Z,2.38
2023-05-21T09:23:58.660Z,2.17
2023-05-21T09:26:26.933Z,2.20
2023-05-21T09:29:04.548Z,2.30
2023-05-21T09:31:32.868Z,2.20
2023-05-21T09:34:06.585Z,1.80
2023-05-21T09:36:34.673Z,2.08
2023-05-21T09:39:09.601Z,2.15
2023-05-21T09:41:37.208Z,2.00
2023-05-21T09:44:18.555Z,1.90
2023-05-21T09:46:45.928Z,2.28
2023-05-21T09:51:46.586Z,2.00
2023-05-21T09:54:13.775Z,2.17
2023-05-21T09:56:47.531Z,2.40
2023-05-21T09:59:15.247Z,2.33
2023-05-21T10:01:50.600Z,2.58
2023-05-21T10:04:18.081Z,2.15
2023-05-21T10:06:54.536Z,1.98
2023-05-21T10:09:22.116Z,2.03
2023-05-21T10:11:56.628Z,2.20
2023-05-21T10:14:26.175Z,2.38
2023-05-21T10:17:00.656Z,2.10
2023-05-21T10:19:29.116Z,2.28
2023-05-21T10:22:03.630Z,2.28
2023-05-21T10:24:31.666Z,2.88
2023-05-21T10:27:05.678Z,2.30
2023-05-21T10:29:33.021Z,2.10
2023-05-21T10:34:35.596Z,2.15
2023-05-21T10:37:03.526Z,2.35
2023-05-21T10:39:31.630Z,2.40
2023-05-21T10:42:20.624Z,2.40
2023-05-21T10:45:15.660Z,2.67
2023-05-21T10:48:09.695Z,2.50
2023-05-21T10:51:01.682Z,2.17
2023-05-21T10:53:44.868Z,2.35
2023-05-21T10:56:33.513Z,2.30
2023-05-21T11:01:37.399Z,2.35
2023-05-21T11:04:12.556Z,1.98
2023-05-21T11:06:39.785Z,2.45
2023-05-21T11:09:22.630Z,2.75
2023-05-21T11:11:54.000Z,2.45
2023-05-21T11:14:45.556Z,2.50
2023-05-21T11:17:13.972Z,2.22
2023-05-21T11:19:53.553Z,2.70
2023-05-21T11:22:21.598Z,2.45
2023-05-21T11:24:56.569Z,2.70
2023-05-21T11:27:33.632Z,2.30
2023-05-21T11:30:07.751Z,2.40
2023-05-21T11:32:39.216Z,2.65
2023-05-21T11:35:06.710Z,2.40
2023-05-21T11:40:22.468Z,2.60
2023-05-21T11:42:57.764Z,2.60
2023-05-21T11:45:33.619Z,2.20
2023-05-21T11:48:07.695Z,2.30
2023-05-21T11:50:41.508Z,2.17
2023-05-21T11:53:09.267Z,2.60
2023-05-21T11:55:49.515Z,2.28
2023-05-21T11:58:19.392Z,2.40
2023-05-21T12:00:53.838Z,2.65
2023-05-21T12:03:27.130Z,2.40
2023-05-21T12:06:01.567Z,2.63
2023-05-21T12:08:43.647Z,2.90
2023-05-21T12:11:23.539Z,2.65
2023-05-21T12:13:51.075Z,2.70
2023-05-21T12:16:30.590Z,2.33
2023-05-21T12:18:58.230Z,2.83
2023-05-21T12:21:25.454Z,2.70
2023-05-21T12:23:59.616Z,2.70
2023-05-21T12:26:35.444Z,3.00
2023-05-21T12:29:12.648Z,2.90
2023-05-21T12:31:49.750Z,2.97
2023-05-21T12:34:26.780Z,2.88
2023-05-21T12:36:54.038Z,2.73
2023-05-21T12:41:54.592Z,2.92
2023-05-21T12:44:30.864Z,2.70
2023-05-21T12:47:05.727Z,2.90
2023-05-21T12:49:43.180Z,2.47
2023-05-21T12:52:17.636Z,2.95
2023-05-21T12:54:46.776Z,2.58
2023-05-21T12:57:25.602Z,2.80
2023-05-21T13:00:03.540Z,2.50
2023-05-21T13:05:08.570Z,2.70
2023-05-21T13:07:36.518Z,2.55
2023-05-21T13:10:10.540Z,2.50
2023-05-21T13:12:37.905Z,2.60
2023-05-21T13:17:39.003Z,2.50
2023-05-21T13:20:15.663Z,2.58
2023-05-21T13:22:47.621Z,2.55
2023-05-21T13:25:22.709Z,2.60
2023-05-21T13:27:50.598Z,2.97
2023-05-21T13:30:18.066Z,2.40
2023-05-21T13:32:51.911Z,2.75
2023-05-21T13:35:19.648Z,2.58
2023-05-21T13:37:53.617Z,2.67
2023-05-21T13:40:21.291Z,2.70
2023-05-21T13:42:55.652Z,2.55
2023-05-21T13:45:29.685Z,2.78
2023-05-21T13:48:04.082Z,2.30
2023-05-21T13:50:31.385Z,2.63
2023-05-21T13:52:59.025Z,2.63
2023-05-21T13:55:32.633Z,2.67
2023-05-21T13:57:59.920Z,2.60
2023-05-21T14:03:01.546Z,3.17
2023-05-21T14:05:35.639Z,2.72
2023-05-21T14:08:02.976Z,2.90
2023-05-21T14:13:11.864Z,3.10
2023-05-21T14:15:52.677Z,2.63
2023-05-21T14:18:19.896Z,2.80
2023-05-21T14:20:47.114Z,3.20
2023-05-21T14:23:20.712Z,2.65
2023-05-21T14:25:47.937Z,2.60
2023-05-21T14:28:21.646Z,2.50
2023-05-21T14:30:48.917Z,2.90
2023-05-21T14:33:23.859Z,2.50
2023-05-21T14:35:51.137Z,2.60
2023-05-21T14:38:24.747Z,3.30
2023-05-21T14:40:52.189Z,2.90
2023-05-21T14:43:38.806Z,2.97
2023-05-21T14:46:06.116Z,3.20
2023-05-21T14:51:07.674Z,2.80
2023-05-21T14:53:34.783Z,2.72
2023-05-21T14:56:08.744Z,2.72
2023-05-21T14:58:35.863Z,2.72
2023-05-21T15:01:10.727Z,2.55
2023-05-21T15:03:37.987Z,2.40
2023-05-21T15:08:38.893Z,2.83
2023-05-21T15:11:07.651Z,2.58
2023-05-21T15:13:34.964Z,2.90
2023-05-21T15:16:08.833Z,2.90
2023-05-21T15:18:36.088Z,2.80
2023-05-21T15:21:10.031Z,2.78
2023-05-21T15:23:37.221Z,2.45
2023-05-21T15:26:04.399Z,2.40
2023-05-21T15:28:37.705Z,2.50
2023-05-21T15:31:05.030Z,2.80
2023-05-21T15:36:05.944Z,2.53
2023-05-21T15:38:33.565Z,2.50
2023-05-21T15:41:07.771Z,2.60
2023-05-21T15:43:54.601Z,2.60
2023-05-21T15:46:28.740Z,2.30
2023-05-21T15:48:56.130Z,2.95
2023-05-21T15:53:56.868Z,2.50
2023-05-21T15:56:30.773Z,3.00
2023-05-21T15:59:01.184Z,2.60
2023-05-21T16:01:35.736Z,2.90
2023-05-21T16:04:03.446Z,2.80
2023-05-21T16:06:37.683Z,2.67
2023-05-21T16:09:04.851Z,2.83
2023-05-21T16:11:38.715Z,2.80
2023-05-21T16:14:05.924Z,2.92
2023-05-21T16:16:33.103Z,3.60
2023-05-21T16:19:06.872Z,2.90
2023-05-21T16:21:34.048Z,3.00
2023-05-21T16:24:08.344Z,3.17
2023-05-21T16:26:35.483Z,3.08
2023-05-21T16:29:03.056Z,2.85
2023-05-21T16:31:36.732Z,2.90
2023-05-21T16:34:03.916Z,2.72
2023-05-21T16:36:37.890Z,2.95
2023-05-21T16:39:05.340Z,2.50
2023-05-21T16:44:05.787Z,2.67
2023-05-21T16:46:33.121Z,2.88
2023-05-21T16:51:34.013Z,2.88
2023-05-21T16:54:09.872Z,2.83
2023-05-21T16:56:37.054Z,2.85
2023-05-21T16:59:04.284Z,2.80
2023-05-21T17:01:37.792Z,2.50
2023-05-21T17:04:05.139Z,2.72
2023-05-21T17:09:08.104Z,2.38
2023-05-21T17:11:35.400Z,3.15
2023-05-21T17:14:08.750Z,2.70
2023-05-21T17:16:36.163Z,2.60
2023-05-21T17:21:37.260Z,2.60
2023-05-21T17:24:04.459Z,2.90
2023-05-21T17:26:37.806Z,2.65
2023-05-21T17:29:05.047Z,2.70
2023-05-21T17:31:39.757Z,2.80
2023-05-21T17:34:07.046Z,2.60
2023-05-21T17:36:40.831Z,2.40
2023-05-21T17:39:08.299Z,2.60
2023-05-21T17:44:32.657Z,2.88
2023-05-21T17:47:06.969Z,2.53
2023-05-21T17:49:34.321Z,2.40
2023-05-21T17:52:10.717Z,2.63
2023-05-21T17:54:44.672Z,2.78
2023-05-21T17:57:13.844Z,2.40
2023-05-21T17:59:51.727Z,3.10
2023-05-21T18:02:19.265Z,2.72
2023-05-21T18:04:46.484Z,2.83
2023-05-21T18:07:19.677Z,2.97
2023-05-21T18:09:46.934Z,2.88
2023-05-21T18:12:20.713Z,2.70
2023-05-21T18:14:48.044Z,2.40
2023-05-21T18:17:15.435Z,2.70
2023-05-21T18:19:48.786Z,2.72
2023-05-21T18:22:15.938Z,2.47
2023-05-21T18:24:49.948Z,2.95
2023-05-21T18:27:17.117Z,2.80
2023-05-21T18:29:44.312Z,2.80
2023-05-21T18:32:17.914Z,2.78
2023-05-21T18:34:45.102Z,2.40
2023-05-21T18:37:18.822Z,2.90
2023-05-21T18:39:46.031Z,2.60
2023-05-21T18:42:19.767Z,2.70
2023-05-21T18:44:53.604Z,2.78
2023-05-21T18:47:27.887Z,2.60
2023-05-21T18:49:55.180Z,2.45
2023-05-21T18:52:28.997Z,3.08
2023-05-21T18:54:56.130Z,2.53
2023-05-21T18:57:23.503Z,2.70
2023-05-21T18:59:58.389Z,2.63
2023-05-21T19:02:29.682Z,2.80
2023-05-21T19:05:03.849Z,2.38
2023-05-21T19:07:31.116Z,2.75
2023-05-21T19:10:00.202Z,2.97
2023-05-21T19:12:35.771Z,2.67
2023-05-21T19:15:03.205Z,2.47
2023-05-21T19:17:37.021Z,2.80
2023-05-21T19:20:05.295Z,2.90
2023-05-21T19:22:32.725Z,2.83
2023-05-21T19:25:06.810Z,2.80
2023-05-21T19:27:34.118Z,2.75
2023-05-21T19:30:07.865Z,2.65
2023-05-21T19:32:41.754Z,2.70
2023-05-21T19:35:09.262Z,3.00
2023-05-21T19:40:12.843Z,3.13
2023-05-21T19:42:40.345Z,3.20
2023-05-21T19:45:21.818Z,3.00
2023-05-21T19:47:55.659Z,3.13
2023-05-21T19:50:30.001Z,2.83
2023-05-21T19:52:57.485Z,3.35
2023-05-21T19:55:25.132Z,3.20
2023-05-21T19:57:58.868Z,3.05
2023-05-21T20:00:26.365Z,3.40
2023-05-21T20:03:00.865Z,3.50
2023-05-21T20:05:28.100Z,3.45
2023-05-21T20:07:55.927Z,3.17
2023-05-21T20:10:29.865Z,3.47
2023-05-21T20:12:56.978Z,3.22
2023-05-21T20:15:30.894Z,3.40
2023-05-21T20:17:59.290Z,3.60
2023-05-21T20:20:29.593Z,3.53
2023-05-21T20:23:04.010Z,3.85
2023-05-21T20:25:31.208Z,3.40
2023-05-21T20:28:01.165Z,3.47
2023-05-21T20:30:39.166Z,3.75
2023-05-21T20:33:12.719Z,3.60
2023-05-21T20:35:46.808Z,3.30
2023-05-21T20:38:23.774Z,3.03
2023-05-21T20:40:51.032Z,3.63
2023-05-21T20:43:21.645Z,3.40
2023-05-21T20:46:05.911Z,3.63
2023-05-21T20:48:33.336Z,3.53
2023-05-21T20:51:08.038Z,3.80
2023-05-21T20:53:35.542Z,3.58
2023-05-21T20:56:02.760Z,3.60
2023-05-21T20:58:37.060Z,3.78
2023-05-21T21:01:04.283Z,3.63
2023-05-21T21:03:33.749Z,3.90
2023-05-21T21:06:07.940Z,3.65
2023-05-21T21:08:35.214Z,3.75
2023-05-21T21:11:09.935Z,3.78
2023-05-21T21:13:37.320Z,3.13
2023-05-21T21:16:04.702Z,3.47
2023-05-21T21:18:38.937Z,3.67
2023-05-21T21:21:06.306Z,3.75
2023-05-21T21:23:33.518Z,3.65
2023-05-21T21:26:06.814Z,3.50
2023-05-21T21:28:34.012Z,3.97
2023-05-21T21:31:08.085Z,3.83
2023-05-21T21:33:35.508Z,3.97
2023-05-21T21:36:02.678Z,3.85
2023-05-21T21:38:36.845Z,3.97
2023-05-21T21:41:04.054Z,3.67
2023-05-21T21:43:37.854Z,3.60
2023-05-21T21:46:11.796Z,3.60
2023-05-21T21:48:46.022Z,4.00
2023-05-21T21:51:14.134Z,3.80
2023-05-21T21:53:41.525Z,3.70
2023-05-21T21:56:14.990Z,3.95
2023-05-21T21:58:42.767Z,3.90
2023-05-21T22:01:10.067Z,3.80
2023-05-21T22:03:43.946Z,4.55
2023-05-21T22:06:11.759Z,3.90
2023-05-21T22:08:38.900Z,4.22
2023-05-21T22:11:12.840Z,4.30
2023-05-21T22:13:47.800Z,4.00
2023-05-21T22:16:15.318Z,3.70
2023-05-21T22:18:42.559Z,3.83
2023-05-21T22:21:16.873Z,4.32
2023-05-21T22:23:44.157Z,4.15
2023-05-21T22:26:17.876Z,3.78
2023-05-21T22:28:45.183Z,3.90
2023-05-21T22:31:12.448Z,4.00
2023-05-21T22:33:45.984Z,4.50
2023-05-21T22:36:13.197Z,4.57
2023-05-21T22:38:40.323Z,3.90
2023-05-21T22:41:14.876Z,4.22
2023-05-21T22:43:48.871Z,4.00
2023-05-21T22:46:29.020Z,4.32
2023-05-21T22:48:56.268Z,4.28
2023-05-21T22:51:23.832Z,4.50
2023-05-21T22:53:57.942Z,5.03
2023-05-21T22:56:31.829Z,4.95
2023-05-21T22:59:05.923Z,4.50
2023-05-21T23:01:39.774Z,4.80
2023-05-21T23:04:14.112Z,4.63
2023-05-21T23:06:47.893Z,4.68
2023-05-21T23:09:21.920Z,4.63
2023-05-21T23:11:55.834Z,4.78
2023-05-21T23:14:23.035Z,4.63
2023-05-21T23:16:50.228Z,4.82
2023-05-21T23:19:23.955Z,4.45
2023-05-21T23:21:51.180Z,4.47
2023-05-21T23:24:24.936Z,4.88
2023-05-21T23:26:52.916Z,4.30
2023-05-21T23:29:20.125Z,4.95
2023-05-21T23:31:53.984Z,4.95
2023-05-21T23:34:23.345Z,4.60
2023-05-21T23:36:59.450Z,4.93
2023-05-21T23:39:28.646Z,5.25
2023-05-21T23:41:55.961Z,4.72
2023-05-21T23:44:29.943Z,5.25
2023-05-21T23:47:03.712Z,4.57
2023-05-21T23:49:38.045Z,4.90
2023-05-21T23:52:06.050Z,5.03
2023-05-21T23:54:33.187Z,4.70
2023-05-21T23:57:06.933Z,5.05
2023-05-21T23:59:34.216Z,5.07
